createdAt,value
2018-08-09T00:00:42.109Z,3.70
2018-08-09T00:03:09.662Z,4.77
2018-08-09T00:05:37.205Z,4.17
2018-08-09T00:08:04.781Z,4.80
2018-08-09T00:10:32.332Z,4.07
2018-08-09T00:12:59.856Z,3.60
2018-08-09T00:15:27.424Z,4.87
2018-08-09T00:17:54.992Z,3.70
2018-08-09T00:20:22.544Z,5.63
2018-08-09T00:22:50.090Z,3.90
2018-08-09T00:25:17.649Z,3.87
2018-08-09T00:27:45.189Z,4.10
2018-08-09T00:30:12.776Z,4.70
2018-08-09T00:32:40.410Z,5.67
2018-08-09T00:35:08.083Z,4.67
2018-08-09T00:37:36.227Z,5.77
2018-08-09T00:40:03.953Z,7.13
2018-08-09T00:42:31.573Z,5.70
2018-08-09T00:44:59.193Z,6.17
2018-08-09T00:47:27.201Z,7.57
2018-08-09T00:49:54.797Z,6.17
2018-08-09T00:52:22.352Z,5.27
2018-08-09T00:54:49.930Z,6.70
2018-08-09T00:57:17.509Z,6.53
2018-08-09T00:59:45.057Z,10.70
2018-08-09T01:02:12.576Z,4.33
2018-08-09T01:04:40.108Z,6.70
2018-08-09T01:07:07.644Z,6.07
2018-08-09T01:09:35.196Z,5.20
2018-08-09T01:12:02.762Z,5.67
2018-08-09T01:14:30.321Z,4.90
2018-08-09T01:16:57.885Z,6.63
2018-08-09T01:19:25.460Z,7.63
2018-08-09T01:21:53.036Z,5.30
2018-08-09T01:24:20.578Z,5.33
2018-08-09T01:26:48.120Z,5.03
2018-08-09T01:29:15.631Z,5.20
2018-08-09T01:31:43.169Z,5.47
2018-08-09T01:34:10.808Z,6.90
2018-08-09T01:36:38.685Z,5.00
2018-08-09T01:39:07.449Z,6.67
2018-08-09T01:44:26.308Z,6.07
2018-08-09T01:46:54.013Z,5.57
2018-08-09T01:49:21.586Z,6.20
2018-08-09T01:51:49.188Z,5.63
2018-08-09T01:54:16.755Z,7.07
2018-08-09T01:56:44.360Z,4.53
2018-08-09T01:59:11.929Z,8.00
2018-08-09T02:01:39.505Z,7.53
2018-08-09T02:04:07.092Z,6.37
2018-08-09T02:06:34.669Z,7.00
2018-08-09T02:09:09.459Z,5.90
2018-08-09T02:11:37.077Z,6.17
2018-08-09T02:14:04.821Z,6.90
2018-08-09T02:16:32.396Z,5.37
2018-08-09T02:19:00.010Z,7.17
2018-08-09T02:21:27.636Z,6.87
2018-08-09T02:23:55.222Z,4.93
2018-08-09T02:26:22.804Z,8.17
2018-08-09T02:28:50.376Z,5.70
2018-08-09T02:31:17.965Z,4.90
2018-08-09T02:33:45.516Z,5.70
2018-08-09T02:36:13.096Z,7.13
2018-08-09T02:38:40.665Z,5.23
2018-08-09T02:41:08.296Z,5.30
2018-08-09T02:43:35.852Z,7.37
2018-08-09T02:46:03.489Z,5.97
2018-08-09T02:48:31.053Z,9.10
2018-08-09T02:50:58.669Z,5.77
2018-08-09T02:53:26.244Z,5.70
2018-08-09T02:55:53.820Z,5.63
2018-08-09T02:58:21.405Z,5.70
2018-08-09T03:00:49.239Z,5.57
2018-08-09T03:03:16.864Z,5.57
2018-08-09T03:05:44.437Z,6.40
2018-08-09T03:08:12.036Z,7.07
2018-08-09T03:10:39.620Z,7.53
2018-08-09T03:13:07.213Z,6.03
2018-08-09T03:15:34.789Z,6.17
2018-08-09T03:18:02.435Z,6.20
2018-08-09T03:20:30.025Z,6.20
2018-08-09T03:22:57.628Z,6.00
2018-08-09T03:25:25.560Z,5.00
2018-08-09T03:27:53.164Z,7.47
2018-08-09T03:30:20.765Z,6.83
2018-08-09T03:32:49.017Z,6.70
2018-08-09T03:35:16.608Z,5.57
2018-08-09T03:37:44.250Z,5.47
2018-08-09T03:40:11.833Z,7.03
2018-08-09T03:42:39.412Z,5.70
2018-08-09T03:45:07.037Z,7.27
2018-08-09T03:47:34.696Z,5.47
2018-08-09T03:50:02.378Z,5.43
2018-08-09T03:52:29.975Z,6.30
2018-08-09T03:54:57.556Z,7.07
2018-08-09T03:57:25.169Z,7.10
2018-08-09T03:59:52.761Z,5.27
2018-08-09T04:02:20.544Z,7.97
2018-08-09T04:04:48.124Z,6.40
2018-08-09T04:07:15.740Z,7.73
2018-08-09T04:09:43.300Z,8.63
2018-08-09T04:12:10.995Z,6.47
2018-08-09T04:14:38.513Z,6.27
2018-08-09T04:17:10.658Z,5.40
2018-08-09T04:19:38.343Z,4.93
2018-08-09T04:22:06.100Z,5.93
2018-08-09T04:24:33.697Z,7.03
2018-08-09T04:27:01.292Z,5.33
2018-08-09T04:29:28.892Z,5.23
2018-08-09T04:31:56.516Z,4.57
2018-08-09T04:34:24.117Z,7.60
2018-08-09T04:36:51.684Z,5.70
2018-08-09T04:39:19.349Z,5.33
2018-08-09T04:41:46.908Z,7.10
2018-08-09T04:44:14.545Z,8.50
2018-08-09T04:46:42.478Z,5.37
2018-08-09T04:49:10.077Z,7.50
2018-08-09T04:51:37.563Z,6.47
2018-08-09T04:54:05.117Z,5.87
2018-08-09T04:56:32.660Z,9.67
2018-08-09T04:59:00.238Z,5.53
2018-08-09T05:01:27.768Z,6.83
2018-08-09T05:03:55.348Z,5.50
2018-08-09T05:06:23.244Z,5.20
2018-08-09T05:08:50.833Z,5.77
2018-08-09T05:11:18.373Z,5.70
2018-08-09T05:13:45.976Z,7.33
2018-08-09T05:16:13.542Z,6.80
2018-08-09T05:18:41.111Z,5.37
2018-08-09T05:21:08.895Z,5.97
2018-08-09T05:23:36.464Z,7.07
2018-08-09T05:26:04.006Z,6.23
2018-08-09T05:28:31.709Z,10.47
2018-08-09T05:30:59.237Z,7.20
2018-08-09T05:33:26.765Z,8.00
2018-08-09T05:35:54.277Z,6.27
2018-08-09T05:38:21.833Z,6.43
2018-08-09T05:40:49.357Z,5.93
2018-08-09T05:43:16.927Z,6.03
2018-08-09T05:45:44.532Z,6.70
2018-08-09T05:48:12.084Z,7.20
2018-08-09T05:50:39.609Z,9.57
2018-08-09T05:53:07.232Z,5.43
2018-08-09T05:55:34.780Z,8.93
2018-08-09T05:58:02.340Z,9.50
2018-08-09T06:00:29.917Z,7.23
2018-08-09T06:02:57.488Z,6.83
2018-08-09T06:05:25.056Z,6.80
2018-08-09T06:07:52.647Z,6.53
2018-08-09T06:10:20.209Z,8.40
2018-08-09T06:12:47.761Z,9.23
2018-08-09T06:15:15.377Z,6.40
2018-08-09T06:17:42.910Z,6.20
2018-08-09T06:20:10.509Z,8.00
2018-08-09T06:22:38.024Z,7.37
2018-08-09T06:25:05.988Z,6.47
2018-08-09T06:27:33.555Z,7.57
2018-08-09T06:30:01.156Z,5.90
2018-08-09T06:32:28.701Z,5.23
2018-08-09T06:34:56.233Z,7.43
2018-08-09T06:37:23.796Z,5.00
2018-08-09T06:39:51.364Z,6.13
2018-08-09T06:42:18.884Z,6.40
2018-08-09T06:44:46.450Z,9.70
2018-08-09T06:47:13.968Z,6.17
2018-08-09T06:49:41.504Z,5.60
2018-08-09T06:52:09.016Z,7.17
2018-08-09T06:54:37.027Z,6.00
2018-08-09T06:57:04.704Z,8.03
2018-08-09T06:59:32.256Z,7.20
2018-08-09T07:01:59.779Z,5.87
2018-08-09T07:04:27.318Z,6.83
2018-08-09T07:06:54.881Z,6.87
2018-08-09T07:09:22.399Z,6.33
2018-08-09T07:11:49.918Z,7.40
2018-08-09T07:14:17.480Z,6.30
2018-08-09T07:16:45.004Z,6.97
2018-08-09T07:19:12.558Z,7.37
2018-08-09T07:21:40.108Z,7.37
2018-08-09T07:24:07.632Z,9.07
2018-08-09T07:26:35.541Z,6.30
2018-08-09T07:29:03.085Z,10.87
2018-08-09T07:31:30.632Z,7.40
2018-08-09T07:33:58.174Z,6.67
2018-08-09T07:36:25.739Z,6.13
2018-08-09T07:38:53.308Z,8.07
2018-08-09T07:41:20.857Z,7.00
2018-08-09T07:43:48.379Z,8.73
2018-08-09T07:46:15.963Z,8.60
2018-08-09T07:48:43.883Z,7.63
2018-08-09T07:51:11.411Z,9.60
2018-08-09T07:53:38.942Z,8.17
2018-08-09T07:56:06.489Z,8.93
2018-08-09T07:58:34.560Z,7.40
2018-08-09T08:01:02.241Z,9.60
2018-08-09T08:03:29.704Z,7.70
2018-08-09T08:05:57.296Z,9.10
2018-08-09T08:08:24.846Z,8.63
2018-08-09T08:10:52.365Z,8.60
2018-08-09T08:13:20.265Z,8.50
2018-08-09T08:15:47.954Z,8.27
2018-08-09T08:18:15.541Z,7.10
2018-08-09T08:20:43.231Z,7.63
2018-08-09T08:23:10.797Z,8.23
2018-08-09T08:25:38.349Z,7.47
2018-08-09T08:28:05.873Z,9.97
2018-08-09T08:30:33.452Z,8.67
2018-08-09T08:33:01.542Z,7.83
2018-08-09T08:35:29.097Z,10.37
2018-08-09T08:37:56.686Z,8.97
2018-08-09T08:40:24.233Z,7.90
2018-08-09T08:42:51.801Z,8.00
2018-08-09T08:45:19.368Z,8.57
2018-08-09T08:47:46.904Z,9.33
2018-08-09T08:50:14.452Z,8.43
2018-08-09T08:52:42.120Z,8.93
2018-08-09T08:55:10.906Z,9.30
2018-08-09T08:57:38.497Z,8.60
2018-08-09T09:00:07.632Z,9.33
2018-08-09T09:02:41.340Z,9.17
2018-08-09T09:05:10.656Z,9.80
2018-08-09T09:07:38.576Z,11.17
2018-08-09T09:10:07.245Z,8.10
2018-08-09T09:12:34.821Z,10.10
2018-08-09T09:15:02.405Z,9.13
2018-08-09T09:17:29.997Z,9.60
2018-08-09T09:19:57.763Z,9.40
2018-08-09T09:22:25.696Z,8.73
2018-08-09T09:24:53.245Z,8.97
2018-08-09T09:27:20.825Z,8.87
2018-08-09T09:29:48.388Z,9.03
2018-08-09T09:32:15.913Z,9.90
2018-08-09T09:34:43.464Z,8.30
2018-08-09T09:37:11.029Z,13.97
2018-08-09T09:39:38.580Z,8.70
2018-08-09T09:42:06.353Z,10.33
2018-08-09T09:44:33.876Z,8.33
2018-08-09T09:47:01.404Z,8.10
2018-08-09T09:49:28.941Z,8.00
2018-08-09T09:51:56.515Z,8.43
2018-08-09T09:54:24.604Z,9.13
2018-08-09T09:56:52.185Z,8.10
2018-08-09T09:59:19.725Z,10.20
2018-08-09T10:01:47.382Z,9.93
2018-08-09T10:04:14.910Z,8.00
2018-08-09T10:06:42.468Z,7.70
2018-08-09T10:09:11.153Z,9.10
2018-08-09T10:11:38.873Z,8.77
2018-08-09T10:14:06.688Z,8.03
2018-08-09T10:16:34.276Z,7.43
2018-08-09T10:19:01.823Z,8.20
2018-08-09T10:21:29.371Z,10.63
2018-08-09T10:23:56.961Z,7.80
2018-08-09T10:26:25.157Z,6.87
2018-08-09T10:28:52.720Z,7.10
2018-08-09T10:31:20.241Z,7.90
2018-08-09T10:33:47.805Z,7.73
2018-08-09T10:36:15.371Z,7.87
2018-08-09T10:38:42.933Z,6.13
2018-08-09T10:41:10.541Z,7.73
2018-08-09T10:43:38.133Z,6.80
2018-08-09T10:46:05.681Z,8.83
2018-08-09T10:48:33.256Z,9.13
2018-08-09T10:51:00.836Z,8.20
2018-08-09T10:53:28.405Z,10.70
2018-08-09T10:55:55.972Z,8.67
2018-08-09T10:58:23.533Z,8.03
2018-08-09T11:00:51.052Z,7.73
2018-08-09T11:03:18.597Z,9.60
2018-08-09T11:05:46.129Z,8.57
2018-08-09T11:08:13.684Z,9.90
2018-08-09T11:10:41.229Z,6.80
2018-08-09T11:13:08.800Z,8.50
2018-08-09T11:15:36.335Z,10.60
2018-08-09T11:18:03.997Z,9.47
2018-08-09T11:20:34.504Z,8.97
2018-08-09T11:23:04.236Z,10.17
2018-08-09T11:25:31.778Z,11.37
2018-08-09T11:27:59.320Z,9.60
2018-08-09T11:30:26.849Z,7.53
2018-08-09T11:32:54.421Z,7.97
2018-08-09T11:35:21.948Z,8.63
2018-08-09T11:37:49.476Z,8.70
2018-08-09T11:40:17.015Z,6.20
2018-08-09T11:42:44.556Z,8.60
2018-08-09T11:45:12.177Z,6.60
2018-08-09T11:47:39.779Z,7.33
2018-08-09T11:50:07.393Z,10.67
2018-08-09T11:52:34.925Z,8.90
2018-08-09T11:55:02.513Z,10.97
2018-08-09T11:57:30.156Z,8.53
2018-08-09T11:59:57.717Z,10.40
2018-08-09T12:02:25.234Z,11.07
2018-08-09T12:04:52.829Z,8.30
2018-08-09T12:07:20.405Z,8.97
2018-08-09T12:09:47.974Z,12.10
2018-08-09T12:12:15.556Z,9.33
2018-08-09T12:14:43.174Z,9.77
2018-08-09T12:17:10.721Z,10.23
2018-08-09T12:19:38.324Z,8.83
2018-08-09T12:22:06.465Z,10.33
2018-08-09T12:24:34.044Z,9.23
2018-08-09T12:27:01.660Z,8.87
2018-08-09T12:29:29.189Z,8.87
2018-08-09T12:31:57.473Z,8.77
2018-08-09T12:34:25.209Z,8.47
2018-08-09T12:36:52.800Z,6.40
2018-08-09T12:39:20.391Z,5.67
2018-08-09T12:41:48.005Z,5.33
2018-08-09T12:44:22.432Z,5.57
2018-08-09T12:46:50.858Z,6.80
2018-08-09T12:49:18.536Z,5.43
2018-08-09T12:51:46.112Z,4.63
2018-08-09T12:54:13.693Z,6.10
2018-08-09T12:56:41.241Z,7.50
2018-08-09T12:59:08.793Z,7.47
2018-08-09T13:01:36.671Z,4.07
2018-08-09T13:04:04.640Z,3.73
2018-08-09T13:06:32.326Z,4.43
2018-08-09T13:08:59.865Z,6.17
2018-08-09T13:11:27.469Z,4.10
2018-08-09T13:13:55.078Z,6.77
2018-08-09T13:16:22.666Z,5.17
2018-08-09T13:18:50.242Z,4.10
2018-08-09T13:21:17.789Z,3.33
2018-08-09T13:23:45.428Z,4.90
2018-08-09T13:26:13.036Z,3.90
2018-08-09T13:28:40.616Z,3.00
2018-08-09T13:31:08.208Z,4.30
2018-08-09T13:33:36.336Z,8.60
2018-08-09T13:36:03.998Z,3.20
2018-08-09T13:38:31.588Z,6.73
2018-08-09T13:40:59.140Z,3.93
2018-08-09T13:43:26.728Z,3.87
2018-08-09T13:45:54.314Z,3.20
2018-08-09T13:48:21.893Z,4.77
2018-08-09T13:50:49.467Z,4.43
2018-08-09T13:53:17.059Z,3.53
2018-08-09T13:55:44.686Z,3.10
2018-08-09T13:58:12.261Z,3.10
2018-08-09T14:00:39.876Z,3.97
2018-08-09T14:03:07.664Z,2.80
2018-08-09T14:05:35.228Z,12.27
2018-08-09T14:08:03.065Z,3.53
2018-08-09T14:10:30.778Z,2.10
2018-08-09T14:13:02.217Z,2.10
2018-08-09T14:15:31.054Z,1.70
2018-08-09T14:17:59.184Z,2.53
2018-08-09T14:20:26.750Z,1.70
2018-08-09T14:22:54.324Z,2.33
2018-08-09T14:25:21.889Z,2.93
2018-08-09T14:27:49.440Z,2.67
2018-08-09T14:30:17.037Z,3.67
2018-08-09T14:32:44.991Z,3.73
2018-08-09T14:35:14.260Z,3.47
2018-08-09T14:37:42.716Z,2.80
2018-08-09T14:40:10.821Z,3.03
2018-08-09T14:42:38.676Z,4.50
2018-08-09T14:45:08.612Z,5.93
2018-08-09T14:47:36.249Z,2.57
2018-08-09T14:50:04.613Z,3.40
2018-08-09T14:52:32.327Z,4.23
2018-08-09T14:55:00.097Z,3.63
2018-08-09T14:57:27.772Z,4.63
2018-08-09T14:59:55.517Z,4.10
2018-08-09T15:02:23.237Z,3.77
2018-08-09T15:04:50.845Z,3.37
2018-08-09T15:07:19.996Z,2.30
2018-08-09T15:09:47.627Z,3.37
2018-08-09T15:12:15.237Z,4.87
2018-08-09T15:14:42.805Z,5.27
2018-08-09T15:17:10.720Z,4.63
2018-08-09T15:19:38.331Z,2.57
2018-08-09T15:22:06.760Z,2.47
2018-08-09T15:24:34.376Z,4.17
2018-08-09T15:27:01.948Z,6.00
2018-08-09T15:29:29.646Z,5.17
2018-08-09T15:31:57.233Z,2.80
2018-08-09T15:34:24.776Z,3.17
2018-08-09T15:36:52.337Z,2.20
2018-08-09T15:39:19.984Z,2.37
2018-08-09T15:41:47.597Z,3.00
2018-08-09T15:44:20.180Z,4.33
2018-08-09T15:46:47.754Z,2.30
2018-08-09T15:49:15.350Z,2.40
2018-08-09T15:51:43.013Z,3.40
2018-08-09T15:54:10.734Z,3.13
2018-08-09T15:56:38.472Z,4.27
2018-08-09T15:59:06.181Z,3.03
2018-08-09T16:01:33.777Z,2.43
2018-08-09T16:04:01.477Z,3.27
2018-08-09T16:06:29.072Z,3.33
2018-08-09T16:08:56.772Z,3.53
2018-08-09T16:11:24.356Z,3.17
2018-08-09T16:13:51.985Z,4.33
2018-08-09T16:16:22.796Z,2.20
2018-08-09T16:18:50.362Z,2.70
2018-08-09T16:21:18.061Z,5.70
2018-08-09T16:23:45.721Z,3.50
2018-08-09T16:26:13.385Z,2.73
2018-08-09T16:28:41.260Z,1.97
2018-08-09T16:31:09.137Z,4.30
2018-08-09T16:33:38.777Z,1.93
2018-08-09T16:36:06.376Z,1.90
2018-08-09T16:38:34.042Z,4.27
2018-08-09T16:41:01.613Z,3.60
2018-08-09T16:43:29.274Z,3.10
2018-08-09T16:45:57.392Z,2.83
2018-08-09T16:48:25.222Z,5.63
2018-08-09T16:50:53.345Z,2.33
2018-08-09T16:53:20.953Z,4.70
2018-08-09T16:55:48.617Z,4.67
2018-08-09T16:58:16.214Z,1.83
2018-08-09T17:00:43.876Z,2.47
2018-08-09T17:03:11.650Z,4.43
2018-08-09T17:05:39.209Z,2.63
2018-08-09T17:08:06.820Z,2.77
2018-08-09T17:10:35.274Z,2.37
2018-08-09T17:13:02.941Z,4.77
2018-08-09T17:15:30.965Z,2.20
2018-08-09T17:17:58.833Z,4.10
2018-08-09T17:20:29.633Z,2.40
2018-08-09T17:22:57.617Z,1.40
2018-08-09T17:25:25.482Z,2.07
2018-08-09T17:27:53.165Z,6.93
2018-08-09T17:30:22.533Z,1.53
2018-08-09T17:32:50.185Z,1.50
2018-08-09T17:35:18.400Z,1.40
2018-08-09T17:37:46.310Z,3.63
2018-08-09T17:40:21.561Z,2.77
2018-08-09T17:42:50.188Z,3.83
2018-08-09T17:45:18.881Z,2.53
2018-08-09T17:47:47.763Z,2.77
2018-08-09T17:50:15.452Z,6.20
2018-08-09T17:52:43.266Z,1.60
2018-08-09T17:55:13.175Z,1.60
2018-08-09T17:57:41.677Z,2.67
2018-08-09T18:00:11.669Z,3.20
2018-08-09T18:02:39.316Z,1.43
2018-08-09T18:05:08.161Z,1.50
2018-08-09T18:07:38.277Z,1.53
2018-08-09T18:10:09.409Z,1.70
2018-08-09T18:12:37.041Z,2.23
2018-08-09T18:15:05.186Z,2.13
2018-08-09T18:17:33.141Z,1.90
2018-08-09T18:20:00.785Z,1.70
2018-08-09T18:22:28.400Z,3.50
2018-08-09T18:24:56.003Z,1.53
2018-08-09T18:27:23.621Z,1.30
2018-08-09T18:29:51.208Z,2.07
2018-08-09T18:32:18.816Z,5.00
2018-08-09T18:34:46.476Z,2.73
2018-08-09T18:37:14.151Z,1.40
2018-08-09T18:39:41.859Z,2.30
2018-08-09T18:42:09.524Z,3.27
2018-08-09T18:44:37.137Z,1.60
2018-08-09T18:47:04.776Z,1.50
2018-08-09T18:49:33.579Z,1.97
2018-08-09T18:52:01.228Z,1.73
2018-08-09T18:54:28.941Z,1.60
2018-08-09T18:56:56.561Z,1.43
2018-08-09T18:59:27.425Z,1.60
2018-08-09T19:01:55.045Z,1.70
2018-08-09T19:04:22.690Z,1.30
2018-08-09T19:06:50.341Z,1.43
2018-08-09T19:09:18.055Z,1.40
2018-08-09T19:11:46.506Z,1.40
2018-08-09T19:14:14.133Z,1.50
2018-08-09T19:16:41.725Z,1.37
2018-08-09T19:19:09.537Z,1.50
2018-08-09T19:21:37.662Z,3.80
2018-08-09T19:24:05.336Z,2.70
2018-08-09T19:26:33.010Z,1.30
2018-08-09T19:29:00.620Z,1.60
2018-08-09T19:31:28.229Z,1.30
2018-08-09T19:33:55.832Z,1.57
2018-08-09T19:36:23.691Z,1.27
2018-08-09T19:38:51.533Z,1.70
2018-08-09T19:41:19.226Z,1.43
2018-08-09T19:43:46.904Z,1.70
2018-08-09T19:46:14.585Z,2.00
2018-08-09T19:48:42.214Z,1.70
2018-08-09T19:51:09.828Z,1.83
2018-08-09T19:53:37.501Z,2.27
2018-08-09T19:56:05.141Z,1.70
2018-08-09T19:58:32.712Z,2.93
2018-08-09T20:01:00.358Z,1.90
2018-08-09T20:03:28.200Z,1.77
2018-08-09T20:05:56.824Z,1.90
2018-08-09T20:08:25.005Z,1.87
2018-08-09T20:10:53.166Z,1.80
2018-08-09T20:13:20.828Z,1.60
2018-08-09T20:15:49.096Z,1.77
2018-08-09T20:18:16.740Z,3.77
2018-08-09T20:20:44.389Z,1.67
2018-08-09T20:23:12.041Z,2.20
2018-08-09T20:25:39.724Z,1.70
2018-08-09T20:28:07.748Z,1.70
2018-08-09T20:30:35.369Z,1.93
2018-08-09T20:33:04.377Z,4.07
2018-08-09T20:35:32.109Z,1.73
2018-08-09T20:37:59.761Z,1.50
2018-08-09T20:40:27.405Z,1.77
2018-08-09T20:42:55.928Z,1.53
2018-08-09T20:45:24.320Z,1.40
2018-08-09T20:47:52.172Z,1.10
2018-08-09T20:50:23.452Z,1.00
2018-08-09T20:52:51.308Z,1.30
2018-08-09T20:55:18.951Z,1.00
2018-08-09T20:57:47.217Z,1.73
2018-08-09T21:00:17.541Z,1.90
2018-08-09T21:02:46.508Z,0.77
2018-08-09T21:05:18.665Z,1.27
2018-08-09T21:07:46.402Z,1.63
2018-08-09T21:10:14.310Z,0.70
2018-08-09T21:12:42.037Z,1.43
2018-08-09T21:15:09.729Z,0.60
2018-08-09T21:17:37.357Z,1.77
2018-08-09T21:20:05.120Z,0.60
2018-08-09T21:22:32.792Z,2.37
2018-08-09T21:25:00.453Z,0.80
2018-08-09T21:27:28.150Z,2.93
2018-08-09T21:29:56.133Z,0.60
2018-08-09T21:32:24.072Z,1.07
2018-08-09T21:34:51.708Z,1.03
2018-08-09T21:37:19.456Z,0.70
2018-08-09T21:39:47.078Z,0.60
2018-08-09T21:42:14.649Z,0.50
2018-08-09T21:44:42.250Z,0.67
2018-08-09T21:47:09.860Z,0.70
2018-08-09T21:49:37.462Z,1.93
2018-08-09T21:52:05.077Z,1.80
2018-08-09T21:54:32.891Z,0.53
2018-08-09T21:57:00.533Z,0.50
2018-08-09T21:59:28.246Z,0.50
2018-08-09T22:01:55.829Z,0.67
2018-08-09T22:04:23.542Z,2.10
2018-08-09T22:06:56.648Z,0.93
2018-08-09T22:11:32.937Z,1.70
2018-08-09T22:14:06.318Z,0.90
2018-08-09T22:16:40.395Z,1.10
2018-08-09T22:19:13.957Z,2.00
2018-08-09T22:21:46.977Z,1.10
2018-08-09T22:24:14.583Z,1.13
2018-08-09T22:26:42.237Z,1.00
2018-08-09T22:29:09.870Z,1.30
2018-08-09T22:31:37.700Z,1.30
2018-08-09T22:34:05.562Z,0.83
2018-08-09T22:36:33.181Z,1.00
2018-08-09T22:39:00.817Z,1.10
2018-08-09T22:41:28.392Z,0.80
2018-08-09T22:43:56.022Z,1.07
2018-08-09T22:46:23.604Z,1.03
2018-08-09T22:48:51.335Z,0.90
2018-08-09T22:51:18.988Z,1.13
2018-08-09T22:53:46.593Z,0.90
2018-08-09T22:56:14.203Z,1.43
2018-08-09T22:58:41.793Z,1.23
2018-08-09T23:01:13.825Z,1.00
2018-08-09T23:03:41.844Z,1.10
2018-08-09T23:06:09.941Z,1.20
2018-08-09T23:08:37.585Z,0.97
2018-08-09T23:11:05.378Z,0.70
2018-08-09T23:13:33.056Z,1.00
2018-08-09T23:16:00.663Z,1.20
2018-08-09T23:18:28.301Z,1.10
2018-08-09T23:20:56.532Z,1.20
2018-08-09T23:23:24.150Z,2.30
2018-08-09T23:25:51.776Z,1.03
2018-08-09T23:28:19.540Z,2.83
2018-08-09T23:30:47.149Z,1.00
2018-08-09T23:33:16.328Z,2.10
2018-08-09T23:35:43.964Z,0.90
2018-08-09T23:38:11.758Z,0.70
2018-08-09T23:40:39.361Z,0.97
2018-08-09T23:43:07.009Z,0.93
2018-08-09T23:45:34.609Z,0.97
2018-08-09T23:48:02.207Z,1.13
2018-08-09T23:50:29.784Z,1.23
2018-08-09T23:52:57.405Z,1.30
2018-08-09T23:55:25.601Z,1.40
2018-08-09T23:57:53.332Z,1.40
